createdAt,value
2022-11-16T00:02:12.745Z,34.05
2022-11-16T00:04:40.585Z,38.25
2022-11-16T00:07:10.757Z,34.80
2022-11-16T00:09:40.947Z,36.78
2022-11-16T00:14:40.349Z,32.88
2022-11-16T00:17:09.708Z,32.67
2022-11-16T00:22:09.628Z,31.63
2022-11-16T00:27:06.823Z,30.67
2022-11-16T00:29:37.933Z,32.50
2022-11-16T00:32:05.125Z,33.13
2022-11-16T00:34:34.837Z,31.35
2022-11-16T00:37:04.704Z,34.33
2022-11-16T00:39:32.241Z,32.28
2022-11-16T00:42:01.970Z,32.10
2022-11-16T00:44:30.351Z,30.33
2022-11-16T00:46:57.694Z,30.27
2022-11-16T00:49:25.197Z,30.58
2022-11-16T00:51:53.037Z,31.55
2022-11-16T00:54:22.463Z,29.58
2022-11-16T00:56:52.699Z,29.83
2022-11-16T00:59:20.468Z,31.42
2022-11-16T01:01:52.514Z,31.77
2022-11-16T01:04:20.077Z,33.10
2022-11-16T01:06:47.309Z,32.42
2022-11-16T01:09:15.041Z,32.15
2022-11-16T01:12:00.694Z,30.25
2022-11-16T01:14:28.191Z,29.77
2022-11-16T01:16:57.988Z,27.58
2022-11-16T01:19:25.514Z,27.75
2022-11-16T01:21:52.772Z,28.08
2022-11-16T01:24:23.104Z,29.88
2022-11-16T01:26:50.888Z,28.52
2022-11-16T01:29:19.157Z,28.63
2022-11-16T01:31:52.946Z,28.98
2022-11-16T01:34:20.738Z,28.40
2022-11-16T01:36:49.259Z,28.08
2022-11-16T01:39:18.292Z,28.20
2022-11-16T01:41:52.915Z,28.83
2022-11-16T01:44:32.154Z,27.67
2022-11-16T01:47:12.612Z,27.58
2022-11-16T01:49:49.923Z,27.05
2022-11-16T01:52:22.587Z,29.15
2022-11-16T01:54:54.322Z,27.55
2022-11-16T01:57:26.017Z,28.13
2022-11-16T02:00:06.189Z,27.02
2022-11-16T02:02:49.183Z,26.17
2022-11-16T02:05:51.553Z,25.35
2022-11-16T02:08:58.275Z,25.13
2022-11-16T02:11:50.669Z,26.15
2022-11-16T02:14:21.013Z,25.63
2022-11-16T02:17:17.550Z,26.00
2022-11-16T02:20:20.919Z,26.48
2022-11-16T02:23:28.486Z,24.58
2022-11-16T02:26:17.365Z,23.80
2022-11-16T02:28:50.601Z,24.00
2022-11-16T02:31:24.569Z,24.42
2022-11-16T02:33:54.165Z,25.55
2022-11-16T02:36:27.184Z,25.90
2022-11-16T02:39:04.038Z,26.58
2022-11-16T02:41:36.338Z,25.15
2022-11-16T02:44:09.742Z,27.58
2022-11-16T02:46:42.935Z,26.05
2022-11-16T02:49:18.821Z,28.85
2022-11-16T02:51:49.723Z,27.55
2022-11-16T02:54:20.195Z,29.08
2022-11-16T02:56:57.471Z,29.10
2022-11-16T02:59:38.365Z,26.40
2022-11-16T03:02:25.586Z,29.17
2022-11-16T03:05:01.833Z,29.50
2022-11-16T03:08:09.345Z,27.02
2022-11-16T03:11:00.221Z,27.20
2022-11-16T03:13:33.824Z,26.65
2022-11-16T03:16:11.301Z,29.45
2022-11-16T03:18:41.041Z,28.60
2022-11-16T03:21:37.607Z,29.02
2022-11-16T03:24:06.096Z,27.80
2022-11-16T03:27:12.239Z,25.52
2022-11-16T03:29:57.447Z,26.38
2022-11-16T03:32:38.164Z,25.50
2022-11-16T03:35:31.717Z,25.20
2022-11-16T03:38:03.065Z,23.95
2022-11-16T03:40:35.879Z,22.70
2022-11-16T03:43:08.945Z,23.65
2022-11-16T03:45:37.664Z,24.05
2022-11-16T03:48:10.987Z,21.77
2022-11-16T03:50:43.600Z,22.67
2022-11-16T03:53:11.568Z,21.58
2022-11-16T03:55:39.481Z,21.75
2022-11-16T03:58:07.159Z,20.83
2022-11-16T04:00:34.520Z,20.58
2022-11-16T04:03:08.041Z,18.98
2022-11-16T04:05:53.822Z,18.92
2022-11-16T04:08:42.110Z,18.92
2022-11-16T04:11:35.245Z,19.63
2022-11-16T04:14:21.722Z,19.15
2022-11-16T04:17:07.296Z,18.95
2022-11-16T04:19:58.283Z,18.00
2022-11-16T04:22:50.951Z,18.55
2022-11-16T04:25:33.100Z,18.58
2022-11-16T04:28:16.410Z,19.50
2022-11-16T04:31:20.311Z,18.52
2022-11-16T04:34:16.680Z,20.60
2022-11-16T04:37:07.441Z,19.73
2022-11-16T04:39:41.486Z,21.25
2022-11-16T04:42:19.798Z,20.25
2022-11-16T04:45:10.840Z,18.30
2022-11-16T04:47:47.665Z,19.67
2022-11-16T04:50:20.655Z,18.30
2022-11-16T04:52:54.113Z,21.00
2022-11-16T04:55:21.314Z,17.38
2022-11-16T04:57:50.556Z,19.42
2022-11-16T05:00:20.682Z,18.25
2022-11-16T05:02:56.914Z,19.05
2022-11-16T05:05:30.652Z,20.52
2022-11-16T05:08:02.141Z,20.38
2022-11-16T05:10:33.934Z,19.33
2022-11-16T05:13:04.333Z,20.42
2022-11-16T05:15:35.313Z,18.38
2022-11-16T05:18:03.087Z,19.88
2022-11-16T05:20:49.129Z,21.17
2022-11-16T05:23:40.100Z,19.40
2022-11-16T05:26:11.872Z,19.92
2022-11-16T05:28:41.648Z,20.58
2022-11-16T05:31:11.154Z,20.23
2022-11-16T05:33:38.582Z,20.00
2022-11-16T05:36:06.680Z,19.55
2022-11-16T05:38:34.235Z,20.65
2022-11-16T05:41:01.657Z,20.50
2022-11-16T05:43:29.983Z,18.30
2022-11-16T05:46:08.183Z,19.25
2022-11-16T05:48:36.471Z,18.02
2022-11-16T05:51:08.327Z,18.75
2022-11-16T05:53:38.889Z,19.42
2022-11-16T05:56:06.989Z,19.10
2022-11-16T05:58:37.627Z,18.30
2022-11-16T06:01:07.889Z,18.65
2022-11-16T06:03:36.376Z,17.42
2022-11-16T06:06:08.070Z,19.30
2022-11-16T06:08:38.913Z,19.40
2022-11-16T06:11:15.111Z,19.38
2022-11-16T06:13:51.413Z,18.13
2022-11-16T06:16:21.332Z,19.75
2022-11-16T06:18:49.148Z,17.25
2022-11-16T06:21:20.501Z,18.50
2022-11-16T06:23:50.831Z,19.00
2022-11-16T06:26:18.307Z,18.92
2022-11-16T06:28:48.891Z,18.60
2022-11-16T06:31:16.293Z,19.42
2022-11-16T06:33:45.386Z,17.67
2022-11-16T06:36:18.889Z,17.92
2022-11-16T06:38:46.345Z,17.05
2022-11-16T06:41:14.110Z,16.90
2022-11-16T06:43:47.724Z,17.63
2022-11-16T06:46:17.809Z,16.50
2022-11-16T06:48:48.402Z,21.17
2022-11-16T06:51:20.806Z,17.30
2022-11-16T06:53:48.400Z,16.88
2022-11-16T06:56:16.453Z,16.65
2022-11-16T06:58:53.239Z,15.85
2022-11-16T07:01:22.829Z,17.55
2022-11-16T07:03:51.516Z,16.23
2022-11-16T07:06:18.710Z,15.55
2022-11-16T07:08:47.165Z,15.13
2022-11-16T07:11:18.164Z,14.55
2022-11-16T07:13:51.065Z,15.43
2022-11-16T07:16:18.303Z,15.65
2022-11-16T07:18:52.859Z,15.40
2022-11-16T07:21:22.221Z,15.23
2022-11-16T07:23:51.824Z,12.93
2022-11-16T07:26:22.281Z,14.85
2022-11-16T07:29:07.591Z,15.05
2022-11-16T07:31:39.303Z,16.40
2022-11-16T07:34:45.280Z,13.82
2022-11-16T07:37:15.947Z,13.48
2022-11-16T07:39:47.182Z,14.65
2022-11-16T07:42:14.738Z,14.23
2022-11-16T07:45:07.243Z,14.15
2022-11-16T07:47:41.697Z,12.70
2022-11-16T07:50:16.348Z,13.80
2022-11-16T07:52:46.487Z,11.90
2022-11-16T07:55:20.437Z,14.45
2022-11-16T07:57:53.409Z,14.07
2022-11-16T08:00:24.617Z,12.63
2022-11-16T08:02:59.613Z,13.40
2022-11-16T08:05:29.564Z,12.52
2022-11-16T08:07:56.760Z,13.57
2022-11-16T08:10:30.216Z,13.65
2022-11-16T08:13:01.770Z,14.77
2022-11-16T08:15:33.717Z,14.02
2022-11-16T08:18:09.746Z,13.35
2022-11-16T08:20:40.137Z,12.25
2022-11-16T08:23:07.612Z,12.00
2022-11-16T08:25:39.053Z,13.45
2022-11-16T08:28:10.566Z,13.27
2022-11-16T08:30:41.510Z,13.70
2022-11-16T08:33:10.107Z,14.95
2022-11-16T08:35:41.682Z,12.50
2022-11-16T08:38:14.069Z,13.43
2022-11-16T08:40:46.849Z,13.35
2022-11-16T08:43:14.245Z,13.40
2022-11-16T08:45:48.325Z,13.75
2022-11-16T08:48:18.233Z,13.93
2022-11-16T08:51:15.357Z,13.63
2022-11-16T08:53:33.450Z,18.50
2022-11-16T08:56:08.654Z,19.95
2022-11-16T08:58:38.445Z,19.63
2022-11-16T09:01:10.534Z,23.40
2022-11-16T09:03:42.060Z,38.20
2022-11-16T09:06:12.429Z,27.63
2022-11-16T09:08:44.986Z,22.67
2022-11-16T09:11:16.042Z,21.38
2022-11-16T09:13:44.560Z,27.08
2022-11-16T09:16:18.002Z,23.17
2022-11-16T09:18:51.567Z,16.05
2022-11-16T09:21:23.758Z,13.02
2022-11-16T09:23:51.236Z,12.30
2022-11-16T09:26:23.132Z,12.20
2022-11-16T09:29:00.361Z,12.18
2022-11-16T09:31:29.406Z,12.43
2022-11-16T09:33:59.225Z,16.45
2022-11-16T09:36:28.774Z,13.38
2022-11-16T09:39:29.073Z,11.27
2022-11-16T09:41:53.142Z,12.25
2022-11-16T09:44:35.615Z,11.57
2022-11-16T09:49:40.859Z,12.30
2022-11-16T09:52:26.973Z,11.73
2022-11-16T09:55:00.440Z,12.70
2022-11-16T09:57:36.193Z,11.48
2022-11-16T10:00:14.878Z,11.50
2022-11-16T10:02:54.415Z,12.27
2022-11-16T10:05:32.737Z,14.23
2022-11-16T10:08:20.350Z,12.23
2022-11-16T10:11:19.197Z,14.60
2022-11-16T10:14:04.475Z,13.73
2022-11-16T10:16:47.599Z,12.90
2022-11-16T10:19:36.606Z,13.50
2022-11-16T10:22:18.308Z,11.63
2022-11-16T10:24:59.154Z,11.10
2022-11-16T10:27:44.957Z,73.82
2022-11-16T10:30:18.683Z,17.95
2022-11-16T10:32:52.148Z,29.42
2022-11-16T10:35:26.736Z,93.53
2022-11-16T10:37:59.897Z,85.38
2022-11-16T10:40:36.817Z,39.25
2022-11-16T10:43:25.668Z,22.02
2022-11-16T10:46:20.506Z,24.88
2022-11-16T10:48:59.682Z,55.35
2022-11-16T10:51:29.220Z,37.80
2022-11-16T10:53:57.197Z,21.10
2022-11-16T10:56:37.592Z,46.17
2022-11-16T10:59:10.475Z,40.72
2022-11-16T11:01:53.423Z,42.20
2022-11-16T11:04:25.968Z,46.63
2022-11-16T11:06:59.845Z,60.35
2022-11-16T11:09:36.883Z,14.75
2022-11-16T11:12:38.144Z,29.00
2022-11-16T11:15:29.737Z,38.13
2022-11-16T11:18:24.236Z,21.17
2022-11-16T11:21:04.108Z,23.45
2022-11-16T11:23:40.580Z,20.15
2022-11-16T11:26:11.927Z,24.65
2022-11-16T11:28:47.972Z,11.13
2022-11-16T11:31:40.914Z,16.08
2022-11-16T11:34:28.292Z,14.18
2022-11-16T11:37:01.202Z,11.90
2022-11-16T11:39:32.547Z,12.00
2022-11-16T11:42:13.768Z,9.45
2022-11-16T11:44:49.805Z,9.55
2022-11-16T11:47:57.177Z,10.00
2022-11-16T11:50:34.409Z,10.52
2022-11-16T11:53:10.846Z,11.82
2022-11-16T11:55:41.284Z,9.13
2022-11-16T11:58:18.275Z,8.77
2022-11-16T12:01:23.746Z,8.13
2022-11-16T12:04:31.403Z,8.07
2022-11-16T12:07:19.184Z,7.43
2022-11-16T12:09:46.366Z,6.28
2022-11-16T12:12:26.276Z,6.35
2022-11-16T12:15:29.854Z,7.90
2022-11-16T12:18:08.109Z,6.15
2022-11-16T12:21:15.204Z,5.72
2022-11-16T12:24:10.509Z,6.68
2022-11-16T12:27:08.040Z,7.70
2022-11-16T12:30:07.413Z,6.60
2022-11-16T12:33:04.465Z,7.65
2022-11-16T12:35:43.567Z,7.40
2022-11-16T12:38:35.872Z,5.82
2022-11-16T12:41:20.660Z,6.00
2022-11-16T12:43:56.266Z,5.13
2022-11-16T12:46:42.099Z,5.75
2022-11-16T12:49:24.240Z,6.97
2022-11-16T12:52:16.304Z,5.13
2022-11-16T12:55:18.952Z,6.53
2022-11-16T12:58:02.334Z,8.75
2022-11-16T13:00:43.707Z,6.63
2022-11-16T13:03:40.594Z,7.90
2022-11-16T13:06:20.471Z,6.18
2022-11-16T13:09:02.591Z,6.57
2022-11-16T13:11:40.200Z,4.95
2022-11-16T13:14:17.875Z,5.07
2022-11-16T13:16:46.448Z,4.45
2022-11-16T13:19:16.048Z,3.97
2022-11-16T13:22:09.928Z,4.18
2022-11-16T13:24:42.284Z,4.28
2022-11-16T13:27:30.206Z,3.80
2022-11-16T13:30:06.620Z,3.90
2022-11-16T13:32:56.293Z,4.10
2022-11-16T13:35:24.131Z,4.28
2022-11-16T13:37:52.222Z,4.30
2022-11-16T13:40:28.767Z,3.20
2022-11-16T13:43:10.491Z,4.13
2022-11-16T13:45:50.236Z,4.40
2022-11-16T13:48:33.731Z,3.67
2022-11-16T13:51:09.179Z,3.10
2022-11-16T13:54:42.757Z,3.60
2022-11-16T13:56:48.777Z,3.67
2022-11-16T13:59:26.576Z,4.75
2022-11-16T14:02:04.354Z,3.92
2022-11-16T14:05:01.850Z,3.20
2022-11-16T14:07:35.352Z,2.72
2022-11-16T14:10:08.054Z,3.50
2022-11-16T14:12:38.718Z,2.60
2022-11-16T14:15:22.045Z,3.42
2022-11-16T14:17:55.180Z,2.78
2022-11-16T14:20:56.250Z,3.10
2022-11-16T14:23:52.281Z,4.93
2022-11-16T14:26:45.076Z,4.05
2022-11-16T14:29:34.249Z,2.80
2022-11-16T14:32:03.553Z,6.75
2022-11-16T14:34:45.839Z,6.28
2022-11-16T14:37:35.991Z,3.28
2022-11-16T14:40:18.428Z,5.93
2022-11-16T14:43:16.358Z,3.47
2022-11-16T14:45:51.665Z,8.18
2022-11-16T14:48:22.673Z,4.25
2022-11-16T14:51:13.447Z,3.92
2022-11-16T14:53:52.721Z,5.43
2022-11-16T14:56:22.781Z,9.57
2022-11-16T14:59:01.412Z,6.40
2022-11-16T15:01:38.905Z,6.82
2022-11-16T15:04:11.886Z,7.53
2022-11-16T15:07:02.250Z,5.40
2022-11-16T15:09:39.267Z,5.60
2022-11-16T15:12:41.188Z,6.85
2022-11-16T15:15:12.805Z,7.13
2022-11-16T15:18:05.069Z,8.00
2022-11-16T15:20:37.275Z,7.00
2022-11-16T15:25:32.824Z,9.98
2022-11-16T15:28:13.686Z,9.13
2022-11-16T15:30:47.625Z,10.05
2022-11-16T15:33:22.694Z,8.55
2022-11-16T15:35:49.945Z,7.18
2022-11-16T15:38:29.054Z,8.15
2022-11-16T15:40:59.246Z,6.97
2022-11-16T15:44:01.369Z,8.60
2022-11-16T15:46:33.937Z,6.72
2022-11-16T15:49:02.262Z,5.57
2022-11-16T15:51:32.118Z,5.15
2022-11-16T15:54:23.065Z,3.92
2022-11-16T15:56:51.686Z,4.38
2022-11-16T15:59:32.258Z,5.25
2022-11-16T16:02:05.106Z,4.40
2022-11-16T16:04:32.772Z,5.65
2022-11-16T16:07:00.733Z,7.22
2022-11-16T16:09:39.315Z,4.60
2022-11-16T16:12:28.118Z,5.80
2022-11-16T16:15:30.058Z,5.53
2022-11-16T16:18:11.491Z,4.75
2022-11-16T16:20:39.178Z,5.03
2022-11-16T16:23:16.297Z,5.93
2022-11-16T16:25:50.297Z,6.07
2022-11-16T16:28:18.004Z,5.70
2022-11-16T16:30:45.414Z,5.97
2022-11-16T16:33:19.495Z,8.77
2022-11-16T16:35:51.002Z,8.30
2022-11-16T16:38:18.163Z,8.13
2022-11-16T16:40:48.151Z,8.40
2022-11-16T16:43:15.452Z,8.38
2022-11-16T16:45:44.247Z,9.48
2022-11-16T16:48:14.429Z,8.50
2022-11-16T16:50:42.080Z,9.25
2022-11-16T16:53:12.271Z,10.75
2022-11-16T16:55:40.044Z,10.23
2022-11-16T16:58:11.244Z,10.27
2022-11-16T17:00:42.043Z,12.35
2022-11-16T17:03:09.684Z,13.02
2022-11-16T17:05:40.298Z,10.80
2022-11-16T17:08:07.721Z,10.82
2022-11-16T17:10:39.112Z,10.63
2022-11-16T17:13:10.443Z,10.50
2022-11-16T17:15:38.145Z,10.63
2022-11-16T17:18:05.421Z,12.00
2022-11-16T17:20:35.068Z,11.70
2022-11-16T17:23:03.038Z,11.88
2022-11-16T17:25:33.138Z,11.82
2022-11-16T17:28:02.618Z,13.35
2022-11-16T17:30:33.417Z,11.88
2022-11-16T17:33:05.159Z,13.15
2022-11-16T17:35:37.467Z,12.43
2022-11-16T17:38:07.390Z,13.40
2022-11-16T17:40:37.139Z,13.40
2022-11-16T17:43:08.969Z,13.40
2022-11-16T17:45:38.713Z,15.32
2022-11-16T17:48:06.108Z,13.85
2022-11-16T17:50:33.573Z,14.90
2022-11-16T17:53:03.061Z,14.05
2022-11-16T17:55:32.844Z,13.80
2022-11-16T17:57:59.995Z,15.10
2022-11-16T18:00:29.657Z,12.82
2022-11-16T18:02:58.870Z,12.82
2022-11-16T18:05:26.337Z,13.27
2022-11-16T18:07:55.598Z,13.85
2022-11-16T18:10:23.075Z,14.85
2022-11-16T18:12:50.499Z,13.32
2022-11-16T18:15:37.761Z,13.57
2022-11-16T18:18:08.021Z,15.95
2022-11-16T18:20:37.566Z,13.38
2022-11-16T18:23:07.408Z,14.55
2022-11-16T18:25:40.013Z,14.95
2022-11-16T18:28:07.492Z,12.85
2022-11-16T18:30:38.603Z,11.82
2022-11-16T18:33:11.349Z,12.80
2022-11-16T18:35:39.012Z,13.27
2022-11-16T18:38:12.932Z,15.02
2022-11-16T18:40:42.815Z,13.38
2022-11-16T18:43:13.237Z,11.38
2022-11-16T18:45:40.644Z,11.05
2022-11-16T18:48:07.797Z,11.63
2022-11-16T18:50:35.275Z,11.55
2022-11-16T18:53:03.473Z,10.75
2022-11-16T18:55:30.864Z,11.60
2022-11-16T18:58:00.449Z,13.65
2022-11-16T19:02:57.596Z,9.88
2022-11-16T19:05:27.141Z,10.60
2022-11-16T19:07:55.046Z,12.18
2022-11-16T19:10:27.290Z,10.60
2022-11-16T19:12:54.721Z,11.02
2022-11-16T19:15:25.573Z,11.63
2022-11-16T19:18:19.980Z,12.20
2022-11-16T19:20:48.060Z,12.88
2022-11-16T19:23:17.630Z,22.90
2022-11-16T19:25:45.966Z,22.48
2022-11-16T19:28:13.378Z,12.93
2022-11-16T19:30:40.816Z,10.88
2022-11-16T19:33:10.371Z,16.77
2022-11-16T19:35:38.132Z,10.55
2022-11-16T19:38:05.213Z,12.32
2022-11-16T19:40:32.628Z,12.07
2022-11-16T19:43:01.867Z,14.32
2022-11-16T19:45:29.263Z,13.48
2022-11-16T19:47:57.454Z,14.70
2022-11-16T19:50:27.349Z,12.00
2022-11-16T19:52:56.605Z,16.90
2022-11-16T19:55:24.883Z,11.90
2022-11-16T19:57:51.974Z,12.32
2022-11-16T20:00:19.546Z,11.90
2022-11-16T20:02:48.915Z,11.75
2022-11-16T20:05:21.233Z,13.07
2022-11-16T20:07:49.560Z,12.38
2022-11-16T20:10:17.350Z,10.90
2022-11-16T20:12:44.708Z,10.85
2022-11-16T20:15:14.950Z,11.55
2022-11-16T20:17:44.693Z,16.85
2022-11-16T20:20:14.457Z,11.10
2022-11-16T20:22:41.734Z,11.85
2022-11-16T20:25:11.428Z,10.43
2022-11-16T20:27:40.732Z,10.05
2022-11-16T20:30:14.289Z,12.07
2022-11-16T20:32:41.451Z,9.25
2022-11-16T20:35:19.063Z,10.65
2022-11-16T20:37:49.061Z,9.45
2022-11-16T20:40:18.845Z,9.10
2022-11-16T20:42:47.027Z,11.55
2022-11-16T20:45:18.877Z,8.82
2022-11-16T20:47:48.585Z,11.63
2022-11-16T20:50:16.432Z,10.88
2022-11-16T20:52:52.565Z,9.43
2022-11-16T20:55:21.009Z,9.85
2022-11-16T20:57:52.846Z,11.85
2022-11-16T21:00:22.898Z,10.02
2022-11-16T21:02:54.419Z,9.95
2022-11-16T21:05:22.456Z,7.45
2022-11-16T21:07:52.073Z,10.45
2022-11-16T21:13:10.782Z,7.85
2022-11-16T21:15:38.378Z,9.48
2022-11-16T21:18:08.474Z,11.20
2022-11-16T21:20:38.442Z,10.88
2022-11-16T21:23:05.617Z,9.15
2022-11-16T21:25:33.184Z,9.93
2022-11-16T21:28:00.604Z,9.00
2022-11-16T21:30:28.638Z,8.77
2022-11-16T21:32:57.902Z,9.05
2022-11-16T21:35:27.564Z,23.85
2022-11-16T21:37:59.470Z,8.55
2022-11-16T21:42:58.569Z,7.68
2022-11-16T21:45:26.151Z,9.70
2022-11-16T21:47:55.582Z,8.40
2022-11-16T21:50:31.720Z,8.40
2022-11-16T21:53:04.156Z,11.00
2022-11-16T21:55:34.851Z,14.32
2022-11-16T21:58:05.264Z,9.10
2022-11-16T22:00:32.877Z,8.52
2022-11-16T22:03:02.588Z,9.15
2022-11-16T22:05:48.402Z,8.65
2022-11-16T22:08:17.989Z,8.82
2022-11-16T22:10:53.234Z,7.97
2022-11-16T22:13:23.324Z,8.88
2022-11-16T22:15:53.273Z,14.73
2022-11-16T22:18:22.574Z,8.65
2022-11-16T22:20:50.378Z,8.27
2022-11-16T22:23:23.539Z,30.75
2022-11-16T22:25:52.196Z,11.07
2022-11-16T22:28:21.215Z,7.25
2022-11-16T22:30:51.953Z,10.40
2022-11-16T22:33:22.012Z,15.90
2022-11-16T22:35:52.103Z,9.93
2022-11-16T22:38:19.256Z,8.88
2022-11-16T22:40:54.610Z,8.80
2022-11-16T22:43:32.296Z,9.55
2022-11-16T22:46:02.532Z,8.75
2022-11-16T22:48:37.221Z,12.05
2022-11-16T22:51:19.009Z,10.68
2022-11-16T22:53:46.371Z,10.23
2022-11-16T22:56:16.028Z,9.32
2022-11-16T22:58:43.143Z,9.05
2022-11-16T23:01:10.906Z,9.23
2022-11-16T23:03:40.921Z,9.27
2022-11-16T23:06:08.580Z,8.35
2022-11-16T23:08:39.973Z,8.27
2022-11-16T23:11:40.334Z,8.88
2022-11-16T23:14:30.993Z,8.68
2022-11-16T23:16:58.837Z,8.77
2022-11-16T23:19:45.368Z,8.52
2022-11-16T23:22:34.367Z,9.18
2022-11-16T23:25:20.682Z,8.98
2022-11-16T23:28:05.169Z,9.15
2022-11-16T23:30:33.011Z,9.40
2022-11-16T23:33:00.956Z,10.93
2022-11-16T23:35:28.220Z,11.00
2022-11-16T23:38:02.604Z,11.88
2022-11-16T23:40:43.515Z,11.63
2022-11-16T23:43:32.527Z,11.95
2022-11-16T23:46:01.887Z,12.48
2022-11-16T23:48:29.499Z,13.55
2022-11-16T23:50:56.552Z,12.38
2022-11-16T23:53:26.424Z,13.00
2022-11-16T23:55:53.975Z,11.20
2022-11-16T23:58:26.017Z,12.43
